Time;durP1;ratioP1;P1;durP2;ratioP2;P2;SDS_P1;SDS_P2;PMS_P1;PMS_P2;Temp;Humidity;BMP_temperature;BMP_pressure;BME280_temperature;BME280_humidity;BME280_pressure;Samples;Min_cycle;Max_cycle;Signal;HPM_P1;HPM_P2
2022/01/30 00:01:26;;;;;;;;;7.25;5.00;;;;;11.79;67.32;102731.28;5040066;28;46189;-43
2022/01/30 00:03:51;;;;;;;;;7.00;7.00;;;;;11.79;67.17;102715.47;5039704;28;45305;-46
2022/01/30 00:06:16;;;;;;;;;7.75;7.00;;;;;11.78;67.26;102703.19;5039888;28;45212;-42
2022/01/30 00:08:42;;;;;;;;;5.75;4.00;;;;;11.77;67.39;102706.66;5039829;28;45215;-47
2022/01/30 00:11:14;;;;;;;;;6.00;5.00;;;;;11.76;67.25;102718.97;5038464;28;47041;-43
2022/01/30 00:13:40;;;;;;;;;6.00;6.00;;;;;11.75;66.93;102718.91;5041564;28;45375;-45
2022/01/30 00:16:08;;;;;;;;;8.00;7.00;;;;;11.76;67.09;102710.16;5046632;28;46484;-44
2022/01/30 00:18:53;;;;;;;;;5.75;5.75;;;;;11.76;66.93;102710.16;5046418;28;45246;-43
2022/01/30 00:23:59;;;;;;;;;5.00;4.00;;;;;11.75;66.95;102708.38;5046083;28;45519;-45
2022/01/30 00:26:30;;;;;;;;;5.00;4.00;;;;;11.75;67.02;102713.66;5046574;28;45395;-41
2022/01/30 00:28:57;;;;;;;;;3.00;3.00;;;;;11.75;67.13;102714.56;5046538;28;45463;-47
2022/01/30 00:31:24;;;;;;;;;3.75;3.75;;;;;11.75;67.07;102705.75;5046262;28;46297;-44
2022/01/30 00:33:50;;;;;;;;;5.50;4.75;;;;;11.75;67.19;102709.28;5046326;28;45273;-47
2022/01/30 00:36:16;;;;;;;;;6.00;5.00;;;;;11.75;67.20;102700.47;5046222;28;45272;-45
2022/01/30 00:38:42;;;;;;;;;7.00;5.75;;;;;11.74;67.14;102709.28;5046357;28;45235;-44
2022/01/30 00:41:07;;;;;;;;;5.75;5.75;;;;;11.74;67.03;102701.38;5045950;28;46025;-45
2022/01/30 00:43:33;;;;;;;;;5.25;5.25;;;;;11.75;67.23;102701.38;5044826;28;45264;-41
2022/01/30 00:45:58;;;;;;;;;5.75;5.75;;;;;11.75;67.24;102700.47;5046375;28;45275;-43
2022/01/30 00:48:24;;;;;;;;;8.25;5.00;;;;;11.75;67.35;102689.94;5046146;28;45203;-45
2022/01/30 00:50:50;;;;;;;;;5.00;5.00;;;;;11.76;67.18;102699.63;5045820;28;46294;-44
2022/01/30 00:53:15;;;;;;;;;8.00;5.00;;;;;11.76;67.11;102686.47;5045914;28;45170;-46
2022/01/30 00:55:40;;;;;;;;;7.75;6.00;;;;;11.77;67.17;102693.50;5046180;28;45279;-43
2022/01/30 00:58:06;;;;;;;;;8.00;7.00;;;;;11.76;66.97;102689.09;5045992;28;45173;-43
2022/01/30 01:00:32;;;;;;;;;8.00;7.50;;;;;11.75;67.30;102677.69;5045975;28;45724;-45
2022/01/30 01:02:58;;;;;;;;;9.00;6.75;;;;;11.77;67.04;102677.69;5045758;28;45300;-45
2022/01/30 01:05:23;;;;;;;;;7.00;6.00;;;;;11.78;67.07;102680.34;5045642;28;45289;-44
2022/01/30 01:07:50;;;;;;;;;7.75;6.00;;;;;11.78;67.25;102676.84;5044741;28;45553;-42
2022/01/30 01:10:32;;;;;;;;;9.00;6.25;;;;;11.79;67.13;102678.59;5045597;28;46210;-42
2022/01/30 01:13:15;;;;;;;;;7.00;6.00;;;;;11.78;66.99;102676.84;5045689;28;45397;-45
2022/01/30 01:23:55;;;;;;;;;6.25;5.00;;;;;11.77;67.09;102669.78;5045412;28;45266;-45
2022/01/30 01:26:22;;;;;;;;;5.75;5.75;;;;;11.73;67.05;102660.97;5041127;28;45284;-46
2022/01/30 01:28:48;;;;;;;;;7.00;6.00;;;;;11.73;66.86;102657.47;5042080;28;45327;-47
2022/01/30 01:31:14;;;;;;;;;6.75;5.75;;;;;11.71;67.07;102666.22;5042167;28;46952;-45
2022/01/30 01:36:22;;;;;;;;;3.00;3.00;;;;;11.64;67.05;102659.09;5042093;28;45182;-42
2022/01/30 01:38:47;;;;;;;;;4.50;4.00;;;;;11.64;66.95;102656.47;5041932;28;45557;-44
2022/01/30 01:41:17;;;;;;;;;5.75;5.50;;;;;11.61;66.97;102664.34;5041777;28;46246;-44
2022/01/30 01:43:43;;;;;;;;;6.00;6.00;;;;;11.61;66.82;102658.19;5041892;28;45384;-46
2022/01/30 01:46:15;;;;;;;;;6.00;6.00;;;;;11.60;66.84;102670.47;5041911;28;45395;-44
2022/01/30 01:48:42;;;;;;;;;9.75;7.00;;;;;11.59;67.09;102666.06;5041892;28;45334;-43
2022/01/30 01:51:15;;;;;;;;;6.50;6.50;;;;;11.57;67.00;102657.25;5039973;28;47590;-43
2022/01/30 01:53:41;;;;;;;;;5.00;5.00;;;;;11.56;66.71;102660.78;5041657;28;45436;-44
2022/01/30 01:56:06;;;;;;;;;7.75;7.75;;;;;11.55;66.78;102666.91;5041641;28;45190;-43
2022/01/30 01:58:32;;;;;;;;;7.50;5.50;;;;;11.51;66.70;102662.47;5041864;28;45224;-43
2022/01/30 02:00:59;;;;;;;;;9.25;5.75;;;;;11.48;66.93;102663.31;5041688;28;45355;-42
2022/01/30 02:03:26;;;;;;;;;8.50;5.00;;;;;11.48;66.98;102670.31;5040599;28;45244;-42
2022/01/30 02:05:56;;;;;;;;;7.50;7.25;;;;;11.47;66.85;102682.63;5041220;28;45521;-42
2022/01/30 02:08:29;;;;;;;;;7.25;6.75;;;;;11.47;66.76;102668.53;5041701;28;45883;-42
2022/01/30 02:11:08;;;;;;;;;7.00;6.75;;;;;11.46;66.93;102665.03;5041421;28;47373;-46
2022/01/30 02:25:24;;;;;;;;;10.00;8.25;;;;;11.38;66.93;102650.88;5041214;28;45327;-45
2022/01/30 02:27:15;;;;;;;;;7.00;5.50;;;;;11.40;66.93;102654.44;5030595;28;45410;-43
2022/01/30 02:29:41;;;;;;;;;10.00;7.50;;;;;11.42;66.89;102651.81;5041307;28;45384;-41
2022/01/30 02:32:06;;;;;;;;;7.50;6.50;;;;;11.40;66.86;102648.28;5041125;28;46980;-42
2022/01/30 02:34:32;;;;;;;;;11.00;9.50;;;;;11.42;66.87;102643.91;5041355;28;45239;-43
2022/01/30 02:36:58;;;;;;;;;11.50;9.00;;;;;11.40;67.05;102640.41;5040016;28;45172;-43
2022/01/30 02:39:25;;;;;;;;;8.00;7.00;;;;;11.41;66.96;102640.41;5040834;28;45844;-44
2022/01/30 02:41:51;;;;;;;;;10.50;8.50;;;;;11.44;66.99;102634.28;5039744;28;45310;-43
2022/01/30 02:44:32;;;;;;;;;8.00;8.00;;;;;11.44;66.89;102635.16;5040949;28;45450;-42
2022/01/30 02:47:04;;;;;;;;;9.00;9.00;;;;;11.45;66.90;102644.84;5041191;28;45462;-45
2022/01/30 02:49:43;;;;;;;;;9.00;8.50;;;;;11.46;66.51;102654.50;5040906;28;45291;-46
2022/01/30 02:52:10;;;;;;;;;14.75;9.00;;;;;11.45;67.10;102652.75;5040873;28;46170;-45
2022/01/30 02:54:36;;;;;;;;;11.00;9.00;;;;;11.46;66.94;102656.25;5040646;28;45307;-42
2022/01/30 02:57:02;;;;;;;;;9.00;8.25;;;;;11.49;66.99;102651.03;5041047;28;45296;-43
2022/01/30 02:59:27;;;;;;;;;10.00;9.25;;;;;11.50;66.89;102650.16;5039343;28;45764;-42
2022/01/30 03:01:53;;;;;;;;;9.50;8.50;;;;;11.50;67.19;102642.28;5041051;28;46067;-44
2022/01/30 03:04:18;;;;;;;;;8.50;8.50;;;;;11.53;66.97;102643.19;5040503;28;45311;-44
2022/01/30 03:06:45;;;;;;;;;9.75;9.25;;;;;11.54;66.98;102647.56;5040788;28;45335;-42
2022/01/30 03:09:11;;;;;;;;;12.25;10.00;;;;;11.56;67.07;102644.97;5039256;28;45421;-45
2022/01/30 03:11:37;;;;;;;;;10.00;8.75;;;;;11.56;66.88;102644.97;5040727;28;45235;-43
2022/01/30 03:14:03;;;;;;;;;11.00;10.00;;;;;11.59;67.09;102659.94;5039388;28;45283;-43
2022/01/30 03:16:28;;;;;;;;;11.00;10.00;;;;;11.60;66.96;102657.31;5040808;28;45390;-44
2022/01/30 03:18:54;;;;;;;;;14.00;11.75;;;;;11.61;66.77;102651.19;5040437;28;45311;-47
2022/01/30 03:21:19;;;;;;;;;11.00;9.00;;;;;11.64;67.16;102651.22;5039089;28;45246;-41
2022/01/30 03:23:46;;;;;;;;;15.50;12.00;;;;;11.67;67.01;102659.16;5040398;28;45254;-42
2022/01/30 03:26:13;;;;;;;;;14.75;11.25;;;;;11.68;67.06;102658.31;5040827;28;45231;-45
2022/01/30 03:28:40;;;;;;;;;14.50;10.50;;;;;11.70;66.87;102661.81;5040246;28;45337;-46
2022/01/30 03:31:08;;;;;;;;;20.25;15.50;;;;;11.73;66.85;102662.72;5040161;28;45990;-42
2022/01/30 03:33:34;;;;;;;;;13.50;12.25;;;;;11.75;66.72;102667.16;5040352;28;45436;-45
2022/01/30 03:35:59;;;;;;;;;12.75;11.00;;;;;11.77;67.14;102659.25;5039063;28;45428;-42
2022/01/30 03:38:26;;;;;;;;;13.25;11.25;;;;;11.78;66.97;102664.53;5040486;28;45358;-43
2022/01/30 03:40:52;;;;;;;;;17.00;11.25;;;;;11.79;66.69;102658.41;5039994;28;46193;-43
2022/01/30 03:43:18;;;;;;;;;21.00;13.25;;;;;11.81;66.76;102663.69;5039875;28;45287;-42
2022/01/30 03:45:44;;;;;;;;;15.00;13.00;;;;;11.80;66.66;102665.44;5040294;28;45416;-44
2022/01/30 03:48:10;;;;;;;;;16.25;14.25;;;;;11.83;66.78;102654.94;5038265;28;45393;-44
2022/01/30 03:50:36;;;;;;;;;12.50;10.50;;;;;11.83;66.65;102646.16;5039766;28;45402;-42
2022/01/30 03:53:02;;;;;;;;;10.50;8.50;;;;;11.86;66.55;102661.97;5040288;28;45342;-44
2022/01/30 03:55:27;;;;;;;;;12.50;9.75;;;;;11.85;66.72;102653.22;5040206;28;45161;-42
2022/01/30 03:57:53;;;;;;;;;9.50;9.50;;;;;11.83;66.55;102651.41;5038632;28;45445;-43
2022/01/30 04:00:18;;;;;;;;;7.00;4.00;;;;;11.83;66.52;102662.84;5040034;28;45178;-44
2022/01/30 04:02:44;;;;;;;;;6.75;6.00;;;;;11.83;66.42;102657.56;5039992;28;45224;-43
2022/01/30 04:05:10;;;;;;;;;6.75;5.00;;;;;11.85;66.54;102662.88;5039678;28;45722;-42
2022/01/30 04:07:36;;;;;;;;;5.50;5.00;;;;;11.81;66.46;102667.22;5039826;28;45267;-44
2022/01/30 04:10:03;;;;;;;;;10.00;6.00;;;;;11.82;66.04;102663.72;5039786;28;45333;-43
2022/01/30 04:12:29;;;;;;;;;7.25;5.00;;;;;11.83;66.01;102667.22;5039712;28;45311;-45
2022/01/30 04:14:55;;;;;;;;;5.50;4.00;;;;;11.81;65.78;102661.06;5039917;28;45294;-44
2022/01/30 04:17:21;;;;;;;;;3.75;3.50;;;;;11.79;65.94;102674.22;5039781;28;45264;-47
2022/01/30 04:19:47;;;;;;;;;4.00;3.50;;;;;11.80;65.58;102667.22;5039489;28;45301;-46
2022/01/30 04:22:12;;;;;;;;;5.00;3.00;;;;;11.77;65.57;102673.28;5039642;28;45194;-42
2022/01/30 04:24:38;;;;;;;;;7.75;5.00;;;;;11.71;65.47;102666.22;5039705;28;45188;-42
2022/01/30 04:27:04;;;;;;;;;5.25;4.25;;;;;11.73;65.17;102670.63;5039683;28;45251;-46
2022/01/30 04:29:30;;;;;;;;;5.25;4.00;;;;;11.70;65.11;102680.25;5039543;28;46153;-46
2022/01/30 04:31:56;;;;;;;;;7.75;2.00;;;;;11.66;64.93;102680.19;5038274;28;45435;-42
2022/01/30 04:34:23;;;;;;;;;4.50;3.25;;;;;11.66;64.86;102672.28;5039723;28;45390;-45
2022/01/30 04:37:02;;;;;;;;;4.75;3.00;;;;;11.63;64.89;102683.66;5039340;28;45362;-44
2022/01/30 04:52:08;;;;;;;;;5.00;4.00;;;;;11.52;64.20;102682.66;5039433;28;45303;-46
2022/01/30 04:58:32;;;;;;;;;5.00;2.50;;;;;11.41;64.11;102690.44;5039383;28;45264;-42
2022/01/30 05:01:21;;;;;;;;;6.75;4.75;;;;;11.38;63.94;102691.28;5040275;28;46052;-43
2022/01/30 05:04:00;;;;;;;;;5.75;3.75;;;;;11.36;63.79;102698.25;5042597;28;45391;-42
2022/01/30 05:06:52;;;;;;;;;2.75;2.00;;;;;11.33;63.87;102697.31;5039205;28;45257;-42
2022/01/30 05:09:17;;;;;;;;;6.00;3.00;;;;;11.30;63.76;102690.25;5042217;28;45528;-44
2022/01/30 05:11:42;;;;;;;;;5.00;3.00;;;;;11.30;63.69;102685.00;5042529;28;46207;-42
2022/01/30 05:14:08;;;;;;;;;2.50;2.50;;;;;11.29;63.55;102690.25;5042614;28;45436;-47
2022/01/30 05:16:35;;;;;;;;;3.00;2.50;;;;;11.26;63.58;102709.53;5042697;28;45481;-44
2022/01/30 05:19:00;;;;;;;;;3.00;2.50;;;;;11.27;63.47;102706.03;5042439;28;45462;-45
2022/01/30 05:21:26;;;;;;;;;6.00;2.75;;;;;11.25;63.48;102701.59;5041977;28;46031;-44
2022/01/30 05:23:51;;;;;;;;;5.50;3.25;;;;;11.24;63.33;102711.22;5042258;28;45197;-46
2022/01/30 05:26:22;;;;;;;;;4.50;3.00;;;;;11.23;63.49;102717.34;5042743;28;45231;-44
2022/01/30 05:28:47;;;;;;;;;3.00;3.00;;;;;11.24;63.39;102718.25;5042571;28;45501;-43
2022/01/30 05:31:13;;;;;;;;;5.00;3.75;;;;;11.21;63.28;102705.94;5042087;28;47333;-45
2022/01/30 05:33:38;;;;;;;;;11.50;4.00;;;;;11.20;63.25;102717.31;5042113;28;45366;-43
2022/01/30 05:36:05;;;;;;;;;3.50;2.75;;;;;11.19;63.32;102726.06;5042254;28;45301;-43
2022/01/30 05:38:31;;;;;;;;;4.25;2.00;;;;;11.18;63.20;102724.31;5042149;28;45548;-43
2022/01/30 05:40:57;;;;;;;;;6.25;4.00;;;;;11.17;63.44;102720.78;5041776;28;46223;-46
2022/01/30 05:43:26;;;;;;;;;6.00;4.00;;;;;11.16;63.28;102726.91;5020658;28;45170;-43
2022/01/30 05:45:59;;;;;;;;;5.75;2.00;;;;;11.14;63.01;102726.00;5034579;28;45313;-43
2022/01/30 05:48:25;;;;;;;;;4.50;3.25;;;;;11.15;63.20;102727.78;5042029;28;45510;-45
2022/01/30 05:50:50;;;;;;;;;2.25;2.00;;;;;11.14;63.14;102727.75;5041650;28;45259;-45
2022/01/30 05:53:16;;;;;;;;;3.50;2.25;;;;;11.12;63.12;102727.75;5042004;28;45201;-42
2022/01/30 05:55:41;;;;;;;;;3.50;3.50;;;;;11.11;63.08;102733.84;5040881;28;45391;-43
2022/01/30 05:58:08;;;;;;;;;4.00;1.75;;;;;11.09;62.94;102729.44;5041922;28;45671;-41
2022/01/30 06:00:34;;;;;;;;;3.00;2.00;;;;;11.08;62.82;102725.94;5041704;28;45360;-42
2022/01/30 06:02:59;;;;;;;;;2.75;2.00;;;;;11.06;62.94;102727.63;5040643;28;45476;-41
2022/01/30 06:05:25;;;;;;;;;4.75;2.25;;;;;11.05;62.99;102729.38;5041752;28;45346;-41
2022/01/30 06:07:53;;;;;;;;;5.25;3.00;;;;;11.04;62.87;102730.25;5041861;28;45260;-42
2022/01/30 06:10:22;;;;;;;;;4.75;1.75;;;;;11.04;62.89;102734.63;5041482;28;46300;-42
2022/01/30 06:12:47;;;;;;;;;5.00;2.75;;;;;11.02;62.68;102741.63;5041385;28;45484;-43
2022/01/30 06:15:13;;;;;;;;;2.50;2.50;;;;;11.01;62.81;102734.59;5041629;28;45366;-42
2022/01/30 06:17:43;;;;;;;;;6.25;4.75;;;;;10.99;62.65;102750.34;5040445;28;45509;-42
2022/01/30 06:20:09;;;;;;;;;5.25;2.50;;;;;10.99;62.47;102757.34;5039739;28;49571;-42
2022/01/30 06:22:34;;;;;;;;;2.75;2.75;;;;;10.96;62.55;102752.91;5041525;28;45248;-41
2022/01/30 06:25:00;;;;;;;;;6.00;2.75;;;;;10.95;62.60;102760.78;5041287;28;45225;-43
2022/01/30 06:27:26;;;;;;;;;4.00;3.50;;;;;10.93;62.58;102762.50;5041596;28;45536;-41
2022/01/30 06:29:51;;;;;;;;;2.75;2.75;;;;;10.90;62.52;102763.34;5041265;28;46253;-41
2022/01/30 06:32:16;;;;;;;;;2.50;2.00;;;;;10.88;62.29;102765.06;5040240;28;45736;-43
2022/01/30 06:34:42;;;;;;;;;2.50;2.00;;;;;10.83;62.39;102756.19;5041190;28;45563;-41
2022/01/30 06:37:08;;;;;;;;;5.00;2.00;;;;;10.84;62.43;102764.13;5041469;28;45310;-43
2022/01/30 06:39:33;;;;;;;;;7.25;4.75;;;;;10.82;62.33;102759.72;5040708;28;46299;-42
2022/01/30 06:41:59;;;;;;;;;2.25;2.25;;;;;10.81;62.29;102764.06;5041486;28;45304;-42
2022/01/30 06:44:24;;;;;;;;;6.25;3.00;;;;;10.79;62.37;102759.63;5041292;28;45256;-42
2022/01/30 06:46:50;;;;;;;;;4.00;3.00;;;;;10.75;62.26;102755.19;5041244;28;45677;-42
2022/01/30 06:49:15;;;;;;;;;2.75;2.00;;;;;10.71;62.32;102752.50;5041107;28;45299;-42
2022/01/30 06:51:40;;;;;;;;;5.50;5.00;;;;;10.68;62.07;102755.09;5040896;28;45395;-43
2022/01/30 06:54:06;;;;;;;;;3.75;3.75;;;;;10.68;62.16;102770.84;5041251;28;45417;-41
2022/01/30 06:56:31;;;;;;;;;3.50;2.00;;;;;10.64;62.17;102769.03;5041080;28;45488;-43
2022/01/30 06:58:56;;;;;;;;;5.50;3.00;;;;;10.63;62.08;102764.63;5039823;28;45285;-43
2022/01/30 07:01:26;;;;;;;;;2.00;1.00;;;;;10.60;62.12;102763.69;5040839;28;45237;-42
2022/01/30 07:03:52;;;;;;;;;3.00;2.25;;;;;10.57;61.93;102772.41;5040943;28;45241;-42
2022/01/30 07:06:17;;;;;;;;;6.00;3.00;;;;;10.54;62.05;102764.44;5040425;28;45416;-42
2022/01/30 07:08:43;;;;;;;;;6.75;3.75;;;;;10.53;61.89;102770.59;5040721;28;45356;-42
2022/01/30 07:11:08;;;;;;;;;5.50;4.25;;;;;10.46;62.01;102755.56;5040715;28;45410;-42
2022/01/30 07:13:34;;;;;;;;;4.25;2.00;;;;;10.46;61.82;102761.69;5040949;28;45575;-42
2022/01/30 07:15:59;;;;;;;;;6.75;4.00;;;;;10.45;61.94;102761.66;5040893;28;45287;-42
2022/01/30 07:18:24;;;;;;;;;7.50;4.50;;;;;10.42;61.60;102775.63;5040614;28;45361;-43
2022/01/30 07:20:50;;;;;;;;;3.00;3.00;;;;;10.39;61.92;102779.09;5040426;28;45313;-43
2022/01/30 07:23:15;;;;;;;;;6.00;3.00;;;;;10.37;61.95;102777.28;5039991;28;45348;-43
2022/01/30 07:25:41;;;;;;;;;4.50;4.50;;;;;10.34;61.79;102774.56;5040445;28;45497;-42
2022/01/30 07:28:07;;;;;;;;;6.00;4.50;;;;;10.31;61.72;102783.28;5040453;28;46123;-41
2022/01/30 07:30:32;;;;;;;;;6.25;5.00;;;;;10.28;61.95;102788.47;5040680;28;45602;-42
2022/01/30 07:32:57;;;;;;;;;5.00;5.00;;;;;10.27;61.86;102793.72;5039271;27;45477;-43
2022/01/30 07:35:23;;;;;;;;;6.75;4.25;;;;;10.24;61.73;102805.06;5040459;28;45185;-42
2022/01/30 07:37:49;;;;;;;;;8.50;4.00;;;;;10.21;61.80;102804.97;5040408;28;46079;-43
2022/01/30 07:40:15;;;;;;;;;5.25;4.00;;;;;10.21;61.75;102805.88;5038765;28;45236;-44
2022/01/30 07:42:40;;;;;;;;;8.00;5.00;;;;;10.19;61.55;102815.47;5040435;28;45297;-46
2022/01/30 07:45:06;;;;;;;;;6.00;5.75;;;;;10.18;61.69;102815.44;5040222;28;45177;-42
2022/01/30 07:47:31;;;;;;;;;6.00;6.00;;;;;10.14;61.63;102814.47;5040155;28;45351;-43
2022/01/30 07:49:57;;;;;;;;;12.50;7.25;;;;;10.13;61.70;102815.34;5040024;28;45306;-43
2022/01/30 07:52:23;;;;;;;;;14.00;10.00;;;;;10.09;61.67;102817.00;5040332;28;45399;-43
2022/01/30 07:54:49;;;;;;;;;11.75;8.75;;;;;10.08;61.60;102817.84;5040070;28;45417;-44
2022/01/30 07:57:17;;;;;;;;;8.75;8.75;;;;;10.06;61.78;102816.03;5039988;28;46313;-43
2022/01/30 07:59:42;;;;;;;;;9.25;8.00;;;;;10.02;61.53;102822.09;5039965;28;45172;-43
2022/01/30 08:02:08;;;;;;;;;9.25;6.75;;;;;10.02;61.58;102820.34;5040215;28;45280;-42
2022/01/30 08:04:33;;;;;;;;;5.50;5.50;;;;;9.99;61.77;102825.56;5039502;28;45407;-43
2022/01/30 08:06:59;;;;;;;;;6.00;4.50;;;;;9.99;61.72;102825.56;5039992;28;46185;-42
2022/01/30 08:09:25;;;;;;;;;6.00;5.75;;;;;9.97;61.62;102832.50;5039595;28;45248;-43
2022/01/30 08:11:50;;;;;;;;;7.50;5.50;;;;;9.96;61.75;102830.75;5040181;28;45343;-43
2022/01/30 08:14:16;;;;;;;;;7.00;5.00;;;;;9.95;61.66;102841.19;5039811;28;45542;-43
2022/01/30 08:16:41;;;;;;;;;24.75;20.75;;;;;9.93;61.48;102839.41;5039864;28;46054;-43
2022/01/30 08:19:06;;;;;;;;;26.50;20.75;;;;;9.93;61.52;102838.53;5039698;28;45236;-44
2022/01/30 08:21:32;;;;;;;;;12.25;9.25;;;;;9.92;61.66;102842.94;5039694;28;45431;-42
2022/01/30 08:23:57;;;;;;;;;6.25;6.25;;;;;9.92;61.56;102835.03;5039568;28;45513;-43
2022/01/30 08:26:23;;;;;;;;;9.00;6.00;;;;;9.91;61.51;102835.00;5039717;28;47233;-41
2022/01/30 08:28:49;;;;;;;;;8.50;5.75;;;;;9.94;61.66;102840.31;5039552;28;45364;-43
2022/01/30 08:31:14;;;;;;;;;6.00;6.00;;;;;9.95;61.71;102841.19;5039896;28;45338;-42
2022/01/30 08:33:40;;;;;;;;;11.75;7.25;;;;;9.96;61.70;102836.00;5039465;28;45315;-43
2022/01/30 08:36:05;;;;;;;;;8.50;6.25;;;;;9.98;61.65;102833.41;5042435;28;45558;-43
2022/01/30 08:38:31;;;;;;;;;7.50;6.00;;;;;10.01;61.69;102836.09;5041702;28;45816;-42
2022/01/30 08:40:56;;;;;;;;;9.25;5.50;;;;;10.02;61.50;102840.50;5041666;28;45261;-42
2022/01/30 08:43:22;;;;;;;;;6.50;5.25;;;;;10.05;61.47;102845.78;5042968;28;45498;-44
2022/01/30 08:45:51;;;;;;;;;8.00;6.00;;;;;10.05;61.65;102833.56;5043055;28;46006;-43
2022/01/30 08:48:18;;;;;;;;;9.50;6.25;;;;;10.08;61.70;102838.88;5042922;28;45678;-45
2022/01/30 08:50:44;;;;;;;;;11.75;6.00;;;;;10.13;61.51;102838.09;5042876;28;45342;-43
2022/01/30 08:53:09;;;;;;;;;6.75;5.00;;;;;10.15;61.59;102839.91;5042707;28;45612;-43
2022/01/30 08:55:35;;;;;;;;;9.75;7.25;;;;;10.21;61.58;102839.13;5042685;28;45958;-43
2022/01/30 08:58:08;;;;;;;;;6.75;6.25;;;;;10.25;61.62;102840.97;5042731;28;45437;-42
2022/01/30 09:00:38;;;;;;;;;6.25;4.25;;;;;10.29;61.47;102839.28;5042944;28;45311;-43
2022/01/30 09:03:05;;;;;;;;;6.75;4.50;;;;;10.33;61.54;102842.03;5042922;28;45323;-44
2022/01/30 09:05:32;;;;;;;;;7.00;6.25;;;;;10.38;61.62;102847.41;5042141;28;46299;-43
2022/01/30 09:07:58;;;;;;;;;9.00;5.75;;;;;10.42;61.85;102846.59;5042690;28;45356;-43
2022/01/30 09:10:24;;;;;;;;;7.00;6.50;;;;;10.47;61.61;102851.97;5042456;28;45260;-43
2022/01/30 09:12:49;;;;;;;;;11.75;8.00;;;;;10.53;61.58;102849.47;5042649;28;45512;-43
2022/01/30 09:15:16;;;;;;;;;7.75;5.50;;;;;10.58;61.61;102842.53;5042568;28;45332;-42
2022/01/30 09:17:43;;;;;;;;;8.25;6.50;;;;;10.64;61.55;102836.50;5042746;28;45443;-43
2022/01/30 09:20:09;;;;;;;;;8.00;5.50;;;;;10.69;61.58;102840.09;5042417;28;45359;-45
2022/01/30 09:22:36;;;;;;;;;9.00;7.25;;;;;10.75;61.53;102837.59;5042446;28;45336;-43
2022/01/30 09:25:01;;;;;;;;;9.25;5.25;;;;;10.81;61.52;102848.22;5042004;28;46251;-45
2022/01/30 09:27:26;;;;;;;;;6.50;4.25;;;;;10.87;61.52;102847.47;5042300;28;45248;-44
2022/01/30 09:29:52;;;;;;;;;9.50;6.75;;;;;10.94;61.45;102849.31;5042384;28;45325;-43
2022/01/30 09:32:17;;;;;;;;;7.75;4.00;;;;;11.00;61.58;102849.44;5042522;28;45264;-42
2022/01/30 09:34:43;;;;;;;;;10.25;6.00;;;;;11.08;61.50;102846.06;5040787;28;48150;-42
2022/01/30 09:37:09;;;;;;;;;6.75;5.50;;;;;11.15;61.42;102847.94;5042274;28;45327;-43
2022/01/30 09:39:35;;;;;;;;;10.75;7.25;;;;;11.20;61.48;102847.16;5041856;28;45394;-44
2022/01/30 09:42:01;;;;;;;;;6.25;5.00;;;;;11.28;61.14;102857.84;5042205;28;45437;-42
2022/01/30 09:44:27;;;;;;;;;8.50;5.75;;;;;11.35;61.50;102850.91;5041764;28;46914;-43
2022/01/30 09:46:53;;;;;;;;;6.00;5.00;;;;;11.40;61.34;102843.09;5041247;28;45283;-45
2022/01/30 09:49:23;;;;;;;;;5.25;4.00;;;;;11.51;61.40;102852.06;5042002;28;45311;-44
2022/01/30 09:51:51;;;;;;;;;9.00;7.00;;;;;11.58;61.58;102853.03;5041990;28;45402;-45
2022/01/30 09:54:16;;;;;;;;;7.25;4.75;;;;;11.68;61.57;102852.28;5041633;28;46231;-44
2022/01/30 09:56:42;;;;;;;;;7.00;5.00;;;;;11.75;61.24;102854.16;5041997;28;45296;-45
2022/01/30 09:59:07;;;;;;;;;6.75;4.50;;;;;11.84;61.26;102856.91;5040592;28;45178;-44
2022/01/30 10:01:35;;;;;;;;;6.75;4.50;;;;;11.93;61.56;102856.16;5042021;28;45223;-44
2022/01/30 10:04:02;;;;;;;;;3.75;3.75;;;;;12.02;61.12;102853.69;5041680;28;46039;-43
2022/01/30 10:06:35;;;;;;;;;4.75;4.50;;;;;12.14;61.27;102854.72;5041371;28;45334;-46
2022/01/30 10:09:30;;;;;;;;;7.75;6.00;;;;;12.25;61.42;102861.03;5041581;28;45262;-44
2022/01/30 10:12:16;;;;;;;;;5.00;4.75;;;;;12.34;61.04;102853.22;5038649;28;45358;-43
2022/01/30 10:14:53;;;;;;;;;6.00;4.00;;;;;12.46;61.04;102855.09;5041642;28;47372;-44
2022/01/30 10:17:36;;;;;;;;;6.75;4.00;;;;;12.57;61.19;102855.22;5040342;28;45488;-43
2022/01/30 10:20:04;;;;;;;;;11.50;5.00;;;;;12.68;61.36;102852.72;5041333;28;45413;-44
2022/01/30 10:22:30;;;;;;;;;10.25;9.50;;;;;12.78;61.14;102853.69;5041544;28;45261;-51
2022/01/30 10:24:56;;;;;;;;;5.25;4.75;;;;;12.89;61.36;102845.88;5041039;28;45558;-43
2022/01/30 10:27:24;;;;;;;;;9.00;4.75;;;;;12.99;61.25;102851.28;5041548;28;45251;-44
2022/01/30 10:29:58;;;;;;;;;9.50;5.75;;;;;13.11;60.88;102853.13;5041328;28;45276;-47
2022/01/30 10:32:23;;;;;;;;;8.25;5.75;;;;;13.21;61.15;102848.81;5040204;28;45347;-44
2022/01/30 10:35:15;;;;;;;;;7.25;6.00;;;;;13.37;60.84;102851.56;5039586;28;46231;-44
2022/01/30 10:37:43;;;;;;;;;6.00;5.50;;;;;13.47;61.18;102846.41;5039228;28;45410;-45
2022/01/30 10:40:15;;;;;;;;;9.50;6.00;;;;;13.59;61.13;102845.59;5040883;28;45281;-44
2022/01/30 10:42:48;;;;;;;;;5.00;4.25;;;;;13.71;60.84;102841.28;5041068;28;45353;-43
2022/01/30 10:45:31;;;;;;;;;9.25;7.50;;;;;13.84;61.40;102845.75;5040851;28;46175;-45
2022/01/30 10:48:16;;;;;;;;;6.75;4.75;;;;;13.97;61.01;102841.41;5040955;28;45329;-45
2022/01/30 10:50:44;;;;;;;;;9.50;6.00;;;;;14.07;60.80;102837.94;5040888;28;45354;-46
2022/01/30 10:53:17;;;;;;;;;8.75;6.25;;;;;14.19;61.00;102833.56;5040959;28;45569;-44
2022/01/30 10:55:44;;;;;;;;;11.50;9.00;;;;;14.25;60.91;102830.97;5022684;28;45586;-44
2022/01/30 10:58:13;;;;;;;;;5.00;5.00;;;;;14.39;60.46;102845.13;5039711;28;45447;-42
2022/01/30 11:00:51;;;;;;;;;9.00;4.25;;;;;14.49;60.81;102843.41;5039720;28;45340;-46
2022/01/30 11:03:38;;;;;;;;;11.00;10.00;;;;;14.58;60.61;102839.91;5040778;28;45436;-46
2022/01/30 11:06:08;;;;;;;;;10.00;7.00;;;;;14.70;60.30;102831.13;5039286;28;45394;-45
2022/01/30 11:08:34;;;;;;;;;7.25;5.25;;;;;14.79;60.60;102833.78;5039601;28;45245;-44
2022/01/30 11:11:17;;;;;;;;;11.75;6.75;;;;;14.89;60.74;102832.03;5040591;28;45386;-45
2022/01/30 11:19:15;;;;;;;;;8.00;4.75;;;;;15.21;60.20;102825.88;5040306;28;45299;-42
2022/01/30 11:21:40;;;;;;;;;6.00;4.75;;;;;15.28;60.27;102823.22;5040654;28;45237;-43
2022/01/30 11:24:07;;;;;;;;;9.25;7.25;;;;;15.41;60.35;102820.56;5040546;28;45317;-45
2022/01/30 11:26:33;;;;;;;;;6.00;4.25;;;;;15.51;59.99;102814.34;5040405;28;45508;-47
2022/01/30 11:28:59;;;;;;;;;6.00;4.50;;;;;15.63;59.94;102813.44;5040679;28;45329;-44
2022/01/30 11:31:25;;;;;;;;;13.00;10.75;;;;;15.74;60.06;102808.13;5040411;28;45268;-44
2022/01/30 11:33:52;;;;;;;;;10.75;7.50;;;;;15.85;59.96;102811.66;5022651;28;45453;-43
2022/01/30 11:36:20;;;;;;;;;8.75;4.75;;;;;15.96;59.82;102814.28;5040066;28;45457;-44
2022/01/30 11:38:46;;;;;;;;;11.75;7.75;;;;;16.07;60.03;102809.81;5040229;28;45289;-44
2022/01/30 11:41:15;;;;;;;;;10.25;6.00;;;;;16.14;59.83;102796.50;5040201;28;45165;-43
2022/01/30 11:44:18;;;;;;;;;9.50;6.00;;;;;16.19;59.77;102798.25;5040208;28;45488;-43
2022/01/30 11:46:57;;;;;;;;;9.25;7.00;;;;;16.22;59.73;102800.88;5039963;28;46309;-43
2022/01/30 11:49:24;;;;;;;;;9.75;7.25;;;;;16.23;59.70;102794.69;5039637;28;45260;-46
2022/01/30 11:51:54;;;;;;;;;8.50;6.25;;;;;16.22;59.45;102787.59;5040467;28;45277;-44
2022/01/30 11:54:38;;;;;;;;;10.75;8.75;;;;;16.27;59.67;102784.06;5039832;28;45429;-44
2022/01/30 11:57:25;;;;;;;;;20.25;18.50;;;;;16.27;59.44;102771.66;5039834;28;45353;-44
2022/01/30 11:59:52;;;;;;;;;12.50;8.50;;;;;16.32;59.38;102776.97;5035922;28;45239;-43
2022/01/30 12:02:34;;;;;;;;;6.25;5.00;;;;;16.36;59.15;102774.28;5040061;28;45394;-44
2022/01/30 12:05:10;;;;;;;;;16.25;12.50;;;;;16.41;59.01;102769.84;5039390;28;45438;-43
2022/01/30 12:07:45;;;;;;;;;7.00;6.25;;;;;16.48;59.16;102765.34;5039688;28;45325;-44
2022/01/30 12:10:19;;;;;;;;;10.25;5.50;;;;;16.55;58.97;102763.53;5039177;28;45458;-45
2022/01/30 12:12:53;;;;;;;;;6.75;5.75;;;;;16.60;59.18;102753.75;5040044;28;45321;-44
2022/01/30 12:15:37;;;;;;;;;5.00;5.00;;;;;16.65;58.92;102753.72;5038629;28;45410;-43